Date,TemperatureHighF,TemperatureAvgF,TemperatureLowF,DewpointHighF,DewpointAvgF,DewpointLowF,HumidityHigh,HumidityAvg,HumidityLow,PressureMaxIn,PressureMinIn,WindSpeedMaxMPH,WindSpeedAvgMPH,GustSpeedMaxMPH,PrecipitationSumIn
2013-3-1,57.0,50.3,47.0,51.0,48.4,46.0,98,94,78,0.00,40.00,4,2,7,0.03
2013-3-2,51.0,47.7,43.0,49.0,46.1,42.0,98,95,84,0.00,40.00,5,2,12,0.03
2013-3-3,51.0,42.6,37.0,42.0,36.9,31.0,97,81,55,0.00,40.00,6,4,12,0.03
2013-3-4,54.0,41.8,33.0,43.0,35.6,30.0,92,79,64,0.00,40.00,6,3,12,0.00
2013-3-5,44.0,42.0,40.0,42.0,39.3,31.0,96,90,64,0.00,40.00,6,2,11,1.47
2013-3-6,47.0,42.1,39.0,43.0,39.8,37.0,95,91,85,0.00,40.00,7,4,14,0.51
2013-3-7,54.0,42.9,35.0,41.0,38.0,34.0,97,84,49,0.00,40.00,4,2,9,0.10
2013-3-8,53.0,40.9,31.0,43.0,37.3,30.0,97,88,57,0.00,40.00,5,2,11,0.00
2013-3-9,59.0,45.6,37.0,45.0,40.9,36.0,97,85,56,0.00,40.00,5,3,9,0.00
2013-3-10,61.0,47.3,35.0,47.0,40.4,33.0,98,81,41,0.00,40.00,5,3,8,0.01
2013-3-11,59.0,49.2,45.0,52.0,46.2,44.0,98,91,63,0.00,40.00,6,3,9,0.01
2013-3-12,55.0,48.2,44.0,51.0,45.9,43.0,98,93,75,0.00,40.00,3,2,6,0.01
2013-3-13,60.0,48.0,44.0,50.0,45.5,43.0,98,92,65,0.00,40.00,4,2,6,0.00
2013-3-14,60.0,48.1,43.0,46.0,44.1,42.0,98,88,60,0.00,40.00,5,3,10,0.00
2013-3-15,60.0,50.7,46.0,51.0,47.2,45.0,97,88,71,0.00,40.00,3,2,6,0.00
2013-3-16,48.0,45.9,42.0,46.0,44.6,41.0,98,96,89,0.00,40.00,6,3,12,0.26
2013-3-17,51.0,42.0,37.0,41.0,36.2,33.0,96,81,56,0.00,40.00,4,2,7,0.08
2013-3-18,53.0,42.5,35.0,43.0,36.6,32.0,94,81,50,0.00,40.00,6,3,9,0.00
2013-3-19,57.0,48.9,44.0,49.0,43.1,37.0,93,81,55,0.00,40.00,8,4,16,0.38
2013-3-20,53.0,47.6,40.0,49.0,43.2,34.0,97,85,67,0.00,40.00,11,6,21,0.71
2013-3-21,50.0,40.5,36.0,39.0,35.3,33.0,96,83,59,0.00,40.00,4,2,8,0.02
2013-3-22,48.0,40.0,35.0,38.0,34.7,31.0,97,83,54,0.00,40.00,6,3,10,0.06
2013-3-23,51.0,39.6,31.0,35.0,32.6,30.0,96,78,49,0.00,40.00,6,3,10,0.01
2013-3-24,55.0,43.1,35.0,38.0,35.4,32.0,94,76,45,0.00,40.00,4,2,7,0.00
2013-3-25,51.0,43.5,37.0,43.0,39.8,35.0,96,87,69,0.00,40.00,3,2,6,0.00
2013-3-26,60.0,48.0,43.0,45.0,42.3,40.0,96,82,49,0.00,40.00,3,2,6,0.00
2013-3-27,56.0,49.3,45.0,51.0,46.0,43.0,96,88,76,0.00,40.00,5,3,9,0.06
2013-3-28,59.0,52.5,48.0,49.0,47.6,46.0,96,84,65,0.00,40.00,4,3,7,0.00
2013-3-29,67.0,53.6,47.0,54.0,48.6,46.0,98,85,50,0.00,40.00,6,3,9,0.01
2013-3-30,72.0,55.0,45.0,55.0,46.4,-99.9,98,81,46,0.00,40.00,5,3,10,0.01
2013-3-31,56.0,52.8,50.0,51.0,49.5,47.0,97,89,77,0.00,40.00,4,2,6,0.00